sensor_id;sensor_type;location;lat;lon;timestamp;P1;durP1;ratioP1;P2;durP2;ratioP2
69594;SDS011;56800;52.142;5.364;2022-12-29T00:00:21;3.45;;;2.33;;
69594;SDS011;56800;52.142;5.364;2022-12-29T00:02:48;4.38;;;2.15;;
69594;SDS011;56800;52.142;5.364;2022-12-29T00:05:15;3.17;;;1.97;;
69594;SDS011;56800;52.142;5.364;2022-12-29T00:07:43;4.75;;;2.25;;
69594;SDS011;56800;52.142;5.364;2022-12-29T00:10:10;3.60;;;2.40;;
69594;SDS011;56800;52.142;5.364;2022-12-29T00:12:37;5.15;;;2.08;;
69594;SDS011;56800;52.142;5.364;2022-12-29T00:15:23;5.10;;;2.30;;
69594;SDS011;56800;52.142;5.364;2022-12-29T00:18:06;4.53;;;2.03;;
69594;SDS011;56800;52.142;5.364;2022-12-29T00:20:34;4.75;;;2.25;;
69594;SDS011;56800;52.142;5.364;2022-12-29T00:23:20;3.95;;;2.22;;
69594;SDS011;56800;52.142;5.364;2022-12-29T00:26:09;3.10;;;1.90;;
69594;SDS011;56800;52.142;5.364;2022-12-29T00:29:01;3.88;;;2.08;;
69594;SDS011;56800;52.142;5.364;2022-12-29T00:31:46;6.17;;;1.70;;
69594;SDS011;56800;52.142;5.364;2022-12-29T00:34:34;5.63;;;2.10;;
69594;SDS011;56800;52.142;5.364;2022-12-29T00:37:19;4.13;;;2.05;;
69594;SDS011;56800;52.142;5.364;2022-12-29T00:40:10;3.35;;;2.20;;
69594;SDS011;56800;52.142;5.364;2022-12-29T00:43:03;2.60;;;1.70;;
69594;SDS011;56800;52.142;5.364;2022-12-29T00:45:49;4.33;;;2.07;;
69594;SDS011;56800;52.142;5.364;2022-12-29T00:48:15;3.20;;;1.88;;
69594;SDS011;56800;52.142;5.364;2022-12-29T00:51:02;3.28;;;1.83;;
69594;SDS011;56800;52.142;5.364;2022-12-29T00:53:29;3.13;;;1.80;;
69594;SDS011;56800;52.142;5.364;2022-12-29T00:55:56;3.15;;;1.88;;
69594;SDS011;56800;52.142;5.364;2022-12-29T00:58:23;4.57;;;2.00;;
69594;SDS011;56800;52.142;5.364;2022-12-29T01:01:02;2.47;;;1.33;;
69594;SDS011;56800;52.142;5.364;2022-12-29T01:03:34;2.90;;;1.90;;
69594;SDS011;56800;52.142;5.364;2022-12-29T01:06:03;5.60;;;1.80;;
69594;SDS011;56800;52.142;5.364;2022-12-29T01:08:31;3.80;;;1.80;;
69594;SDS011;56800;52.142;5.364;2022-12-29T01:11:02;5.87;;;2.00;;
69594;SDS011;56800;52.142;5.364;2022-12-29T01:13:32;4.28;;;1.75;;
69594;SDS011;56800;52.142;5.364;2022-12-29T01:15:59;3.97;;;1.70;;
69594;SDS011;56800;52.142;5.364;2022-12-29T01:18:26;3.35;;;1.70;;
69594;SDS011;56800;52.142;5.364;2022-12-29T01:21:02;3.45;;;1.45;;
69594;SDS011;56800;52.142;5.364;2022-12-29T01:23:32;3.83;;;1.60;;
69594;SDS011;56800;52.142;5.364;2022-12-29T01:26:07;3.35;;;1.58;;
69594;SDS011;56800;52.142;5.364;2022-12-29T01:28:35;5.18;;;1.90;;
69594;SDS011;56800;52.142;5.364;2022-12-29T01:31:04;5.40;;;1.73;;
69594;SDS011;56800;52.142;5.364;2022-12-29T01:33:35;2.85;;;1.60;;
69594;SDS011;56800;52.142;5.364;2022-12-29T01:36:05;5.63;;;1.70;;
69594;SDS011;56800;52.142;5.364;2022-12-29T01:38:34;4.40;;;1.50;;
69594;SDS011;56800;52.142;5.364;2022-12-29T01:41:02;4.25;;;1.80;;
69594;SDS011;56800;52.142;5.364;2022-12-29T01:46:06;2.92;;;1.60;;
69594;SDS011;56800;52.142;5.364;2022-12-29T01:48:51;3.53;;;1.10;;
69594;SDS011;56800;52.142;5.364;2022-12-29T01:51:48;3.78;;;1.50;;
69594;SDS011;56800;52.142;5.364;2022-12-29T01:54:31;3.50;;;1.95;;
69594;SDS011;56800;52.142;5.364;2022-12-29T01:57:11;3.58;;;1.85;;
69594;SDS011;56800;52.142;5.364;2022-12-29T01:59:46;3.67;;;1.67;;
69594;SDS011;56800;52.142;5.364;2022-12-29T02:02:19;3.30;;;1.50;;
69594;SDS011;56800;52.142;5.364;2022-12-29T02:04:46;2.72;;;1.40;;
69594;SDS011;56800;52.142;5.364;2022-12-29T02:07:16;3.13;;;1.58;;
69594;SDS011;56800;52.142;5.364;2022-12-29T02:09:51;1.95;;;1.30;;
69594;SDS011;56800;52.142;5.364;2022-12-29T02:12:22;4.15;;;1.92;;
69594;SDS011;56800;52.142;5.364;2022-12-29T02:14:53;3.47;;;1.40;;
69594;SDS011;56800;52.142;5.364;2022-12-29T02:41:54;3.63;;;1.20;;
69594;SDS011;56800;52.142;5.364;2022-12-29T02:53:13;4.75;;;1.08;;
69594;SDS011;56800;52.142;5.364;2022-12-29T02:55:49;3.83;;;1.23;;
69594;SDS011;56800;52.142;5.364;2022-12-29T02:58:19;5.95;;;1.00;;
69594;SDS011;56800;52.142;5.364;2022-12-29T03:12:35;3.10;;;1.23;;
69594;SDS011;56800;52.142;5.364;2022-12-29T03:15:40;3.17;;;1.15;;
69594;SDS011;56800;52.142;5.364;2022-12-29T03:21:27;3.65;;;1.00;;
69594;SDS011;56800;52.142;5.364;2022-12-29T03:24:17;2.23;;;1.00;;
69594;SDS011;56800;52.142;5.364;2022-12-29T03:26:47;2.97;;;1.15;;
69594;SDS011;56800;52.142;5.364;2022-12-29T03:29:19;2.67;;;1.00;;
69594;SDS011;56800;52.142;5.364;2022-12-29T03:32:21;2.58;;;0.70;;
69594;SDS011;56800;52.142;5.364;2022-12-29T03:34:51;7.32;;;1.17;;
69594;SDS011;56800;52.142;5.364;2022-12-29T03:37:22;3.10;;;1.10;;
69594;SDS011;56800;52.142;5.364;2022-12-29T03:39:54;2.25;;;0.90;;
69594;SDS011;56800;52.142;5.364;2022-12-29T03:42:25;4.20;;;1.20;;
69594;SDS011;56800;52.142;5.364;2022-12-29T03:44:55;2.72;;;1.05;;
69594;SDS011;56800;52.142;5.364;2022-12-29T03:47:35;1.95;;;0.85;;
69594;SDS011;56800;52.142;5.364;2022-12-29T03:50:02;5.27;;;1.00;;
69594;SDS011;56800;52.142;5.364;2022-12-29T03:52:31;3.95;;;1.27;;
69594;SDS011;56800;52.142;5.364;2022-12-29T03:54:59;4.43;;;1.33;;
69594;SDS011;56800;52.142;5.364;2022-12-29T03:57:27;5.55;;;1.40;;
69594;SDS011;56800;52.142;5.364;2022-12-29T03:59:55;4.93;;;1.25;;
69594;SDS011;56800;52.142;5.364;2022-12-29T04:02:21;3.87;;;1.10;;
69594;SDS011;56800;52.142;5.364;2022-12-29T04:04:50;4.60;;;1.08;;
69594;SDS011;56800;52.142;5.364;2022-12-29T04:07:17;2.58;;;1.40;;
69594;SDS011;56800;52.142;5.364;2022-12-29T04:09:45;6.05;;;1.38;;
69594;SDS011;56800;52.142;5.364;2022-12-29T04:12:12;4.00;;;1.05;;
69594;SDS011;56800;52.142;5.364;2022-12-29T04:14:40;3.90;;;1.07;;
69594;SDS011;56800;52.142;5.364;2022-12-29T04:17:08;3.65;;;1.08;;
69594;SDS011;56800;52.142;5.364;2022-12-29T04:19:36;5.55;;;1.38;;
69594;SDS011;56800;52.142;5.364;2022-12-29T04:22:02;4.95;;;1.50;;
69594;SDS011;56800;52.142;5.364;2022-12-29T04:24:29;4.38;;;1.17;;
69594;SDS011;56800;52.142;5.364;2022-12-29T04:26:56;4.90;;;1.37;;
69594;SDS011;56800;52.142;5.364;2022-12-29T04:29:23;7.30;;;1.50;;
69594;SDS011;56800;52.142;5.364;2022-12-29T04:31:50;6.38;;;2.17;;
69594;SDS011;56800;52.142;5.364;2022-12-29T04:34:21;7.70;;;1.20;;
69594;SDS011;56800;52.142;5.364;2022-12-29T04:36:49;7.45;;;1.38;;
69594;SDS011;56800;52.142;5.364;2022-12-29T04:39:15;9.60;;;1.43;;
69594;SDS011;56800;52.142;5.364;2022-12-29T04:41:43;9.65;;;1.55;;
69594;SDS011;56800;52.142;5.364;2022-12-29T04:44:09;4.65;;;1.25;;
69594;SDS011;56800;52.142;5.364;2022-12-29T04:46:36;8.13;;;1.23;;
69594;SDS011;56800;52.142;5.364;2022-12-29T04:49:03;4.43;;;1.27;;
69594;SDS011;56800;52.142;5.364;2022-12-29T04:51:34;6.80;;;1.57;;
69594;SDS011;56800;52.142;5.364;2022-12-29T04:54:01;8.23;;;1.75;;
69594;SDS011;56800;52.142;5.364;2022-12-29T04:56:28;6.85;;;1.60;;
69594;SDS011;56800;52.142;5.364;2022-12-29T04:58:55;10.23;;;1.60;;
69594;SDS011;56800;52.142;5.364;2022-12-29T05:01:21;6.78;;;1.38;;
69594;SDS011;56800;52.142;5.364;2022-12-29T05:03:49;7.13;;;1.10;;
69594;SDS011;56800;52.142;5.364;2022-12-29T05:06:18;7.15;;;1.40;;
69594;SDS011;56800;52.142;5.364;2022-12-29T05:08:45;5.80;;;1.50;;
69594;SDS011;56800;52.142;5.364;2022-12-29T05:11:11;16.20;;;1.75;;
69594;SDS011;56800;52.142;5.364;2022-12-29T05:13:38;11.93;;;1.58;;
69594;SDS011;56800;52.142;5.364;2022-12-29T05:16:04;12.00;;;1.93;;
69594;SDS011;56800;52.142;5.364;2022-12-29T05:18:32;10.43;;;1.45;;
69594;SDS011;56800;52.142;5.364;2022-12-29T05:20:59;12.10;;;1.40;;
69594;SDS011;56800;52.142;5.364;2022-12-29T05:23:27;17.50;;;1.52;;
69594;SDS011;56800;52.142;5.364;2022-12-29T05:25:53;14.05;;;2.35;;
69594;SDS011;56800;52.142;5.364;2022-12-29T05:28:20;13.33;;;2.27;;
69594;SDS011;56800;52.142;5.364;2022-12-29T05:30:50;9.32;;;1.70;;
69594;SDS011;56800;52.142;5.364;2022-12-29T05:33:18;7.95;;;1.65;;
69594;SDS011;56800;52.142;5.364;2022-12-29T05:35:45;10.45;;;1.80;;
69594;SDS011;56800;52.142;5.364;2022-12-29T05:38:12;12.90;;;2.20;;
69594;SDS011;56800;52.142;5.364;2022-12-29T05:40:39;13.73;;;1.80;;
69594;SDS011;56800;52.142;5.364;2022-12-29T05:43:06;13.18;;;2.03;;
69594;SDS011;56800;52.142;5.364;2022-12-29T05:45:32;8.25;;;1.50;;
69594;SDS011;56800;52.142;5.364;2022-12-29T05:47:59;13.18;;;1.80;;
69594;SDS011;56800;52.142;5.364;2022-12-29T05:50:26;11.45;;;1.77;;
69594;SDS011;56800;52.142;5.364;2022-12-29T05:52:53;13.63;;;1.70;;
69594;SDS011;56800;52.142;5.364;2022-12-29T05:55:23;9.25;;;1.75;;
69594;SDS011;56800;52.142;5.364;2022-12-29T05:57:53;10.82;;;1.95;;
69594;SDS011;56800;52.142;5.364;2022-12-29T06:00:20;12.23;;;2.03;;
69594;SDS011;56800;52.142;5.364;2022-12-29T06:02:46;11.27;;;1.45;;
69594;SDS011;56800;52.142;5.364;2022-12-29T06:05:13;13.47;;;1.67;;
69594;SDS011;56800;52.142;5.364;2022-12-29T06:07:40;7.55;;;1.40;;
69594;SDS011;56800;52.142;5.364;2022-12-29T06:10:07;10.38;;;1.90;;
69594;SDS011;56800;52.142;5.364;2022-12-29T06:12:34;12.82;;;1.65;;
69594;SDS011;56800;52.142;5.364;2022-12-29T06:15:01;8.50;;;1.67;;
69594;SDS011;56800;52.142;5.364;2022-12-29T06:17:28;10.00;;;1.80;;
69594;SDS011;56800;52.142;5.364;2022-12-29T06:19:54;16.77;;;2.03;;
69594;SDS011;56800;52.142;5.364;2022-12-29T06:22:21;12.90;;;1.70;;
69594;SDS011;56800;52.142;5.364;2022-12-29T06:24:48;12.60;;;1.60;;
69594;SDS011;56800;52.142;5.364;2022-12-29T06:27:14;9.95;;;1.63;;
69594;SDS011;56800;52.142;5.364;2022-12-29T06:29:42;13.07;;;1.77;;
69594;SDS011;56800;52.142;5.364;2022-12-29T06:32:09;14.95;;;1.70;;
69594;SDS011;56800;52.142;5.364;2022-12-29T06:34:36;14.07;;;2.17;;
69594;SDS011;56800;52.142;5.364;2022-12-29T06:37:03;12.30;;;1.80;;
69594;SDS011;56800;52.142;5.364;2022-12-29T06:39:30;14.70;;;2.30;;
69594;SDS011;56800;52.142;5.364;2022-12-29T06:41:56;9.50;;;1.50;;
69594;SDS011;56800;52.142;5.364;2022-12-29T06:44:23;12.68;;;2.40;;
69594;SDS011;56800;52.142;5.364;2022-12-29T06:46:50;15.18;;;2.20;;
69594;SDS011;56800;52.142;5.364;2022-12-29T06:49:17;11.48;;;1.70;;
69594;SDS011;56800;52.142;5.364;2022-12-29T06:51:44;10.88;;;1.42;;
69594;SDS011;56800;52.142;5.364;2022-12-29T06:54:11;15.30;;;2.00;;
69594;SDS011;56800;52.142;5.364;2022-12-29T06:56:39;15.50;;;2.55;;
69594;SDS011;56800;52.142;5.364;2022-12-29T06:59:06;17.02;;;1.75;;
69594;SDS011;56800;52.142;5.364;2022-12-29T07:01:33;11.20;;;1.55;;
69594;SDS011;56800;52.142;5.364;2022-12-29T07:04:02;11.85;;;1.75;;
69594;SDS011;56800;52.142;5.364;2022-12-29T07:06:29;13.50;;;2.30;;
69594;SDS011;56800;52.142;5.364;2022-12-29T07:08:56;14.10;;;2.10;;
69594;SDS011;56800;52.142;5.364;2022-12-29T07:11:23;8.73;;;1.40;;
69594;SDS011;56800;52.142;5.364;2022-12-29T07:13:50;9.95;;;1.65;;
69594;SDS011;56800;52.142;5.364;2022-12-29T07:16:17;14.95;;;2.42;;
69594;SDS011;56800;52.142;5.364;2022-12-29T07:18:44;9.27;;;1.60;;
69594;SDS011;56800;52.142;5.364;2022-12-29T07:21:11;9.98;;;1.63;;
69594;SDS011;56800;52.142;5.364;2022-12-29T07:23:37;13.13;;;1.67;;
69594;SDS011;56800;52.142;5.364;2022-12-29T07:26:05;5.38;;;1.40;;
69594;SDS011;56800;52.142;5.364;2022-12-29T07:28:34;10.30;;;1.75;;
69594;SDS011;56800;52.142;5.364;2022-12-29T07:31:02;11.43;;;1.53;;
69594;SDS011;56800;52.142;5.364;2022-12-29T07:33:29;7.10;;;1.73;;
69594;SDS011;56800;52.142;5.364;2022-12-29T07:36:00;10.88;;;1.73;;
69594;SDS011;56800;52.142;5.364;2022-12-29T07:38:29;11.45;;;1.67;;
69594;SDS011;56800;52.142;5.364;2022-12-29T07:40:57;10.65;;;1.55;;
69594;SDS011;56800;52.142;5.364;2022-12-29T07:43:24;14.40;;;1.90;;
69594;SDS011;56800;52.142;5.364;2022-12-29T07:45:51;9.10;;;1.50;;
69594;SDS011;56800;52.142;5.364;2022-12-29T07:48:18;9.77;;;1.88;;
69594;SDS011;56800;52.142;5.364;2022-12-29T07:50:45;8.07;;;1.60;;
69594;SDS011;56800;52.142;5.364;2022-12-29T07:53:12;8.38;;;1.55;;
69594;SDS011;56800;52.142;5.364;2022-12-29T07:55:38;10.43;;;1.80;;
69594;SDS011;56800;52.142;5.364;2022-12-29T07:58:05;11.15;;;1.73;;
69594;SDS011;56800;52.142;5.364;2022-12-29T08:00:32;12.48;;;2.05;;
69594;SDS011;56800;52.142;5.364;2022-12-29T08:02:59;8.50;;;1.77;;
69594;SDS011;56800;52.142;5.364;2022-12-29T08:05:26;9.60;;;1.67;;
69594;SDS011;56800;52.142;5.364;2022-12-29T08:07:52;10.03;;;1.77;;
69594;SDS011;56800;52.142;5.364;2022-12-29T08:10:19;12.02;;;1.88;;
69594;SDS011;56800;52.142;5.364;2022-12-29T08:12:46;12.32;;;1.80;;
69594;SDS011;56800;52.142;5.364;2022-12-29T08:15:12;15.00;;;2.15;;
69594;SDS011;56800;52.142;5.364;2022-12-29T08:17:39;14.50;;;1.80;;
69594;SDS011;56800;52.142;5.364;2022-12-29T08:20:06;12.53;;;2.00;;
69594;SDS011;56800;52.142;5.364;2022-12-29T08:22:33;12.25;;;1.70;;
69594;SDS011;56800;52.142;5.364;2022-12-29T08:25:00;18.05;;;2.30;;
69594;SDS011;56800;52.142;5.364;2022-12-29T08:27:27;12.68;;;2.05;;
69594;SDS011;56800;52.142;5.364;2022-12-29T08:29:53;11.90;;;2.15;;
69594;SDS011;56800;52.142;5.364;2022-12-29T08:32:20;13.33;;;2.07;;
69594;SDS011;56800;52.142;5.364;2022-12-29T08:34:47;11.90;;;1.52;;
69594;SDS011;56800;52.142;5.364;2022-12-29T08:37:13;13.02;;;2.08;;
69594;SDS011;56800;52.142;5.364;2022-12-29T08:39:40;9.25;;;1.58;;
69594;SDS011;56800;52.142;5.364;2022-12-29T08:42:07;13.27;;;1.83;;
69594;SDS011;56800;52.142;5.364;2022-12-29T08:44:33;10.13;;;1.70;;
69594;SDS011;56800;52.142;5.364;2022-12-29T08:47:00;10.70;;;2.03;;
69594;SDS011;56800;52.142;5.364;2022-12-29T08:49:27;15.23;;;1.80;;
69594;SDS011;56800;52.142;5.364;2022-12-29T08:51:53;16.38;;;2.10;;
69594;SDS011;56800;52.142;5.364;2022-12-29T08:54:20;13.80;;;2.00;;
69594;SDS011;56800;52.142;5.364;2022-12-29T08:56:51;9.03;;;1.50;;
69594;SDS011;56800;52.142;5.364;2022-12-29T08:59:17;12.60;;;1.92;;
69594;SDS011;56800;52.142;5.364;2022-12-29T09:01:44;12.65;;;2.88;;
69594;SDS011;56800;52.142;5.364;2022-12-29T09:04:11;14.57;;;1.98;;
69594;SDS011;56800;52.142;5.364;2022-12-29T09:06:42;13.10;;;1.77;;
69594;SDS011;56800;52.142;5.364;2022-12-29T09:09:09;11.87;;;1.83;;
69594;SDS011;56800;52.142;5.364;2022-12-29T09:11:37;15.02;;;1.90;;
69594;SDS011;56800;52.142;5.364;2022-12-29T09:14:03;13.63;;;2.30;;
69594;SDS011;56800;52.142;5.364;2022-12-29T09:16:30;11.77;;;2.47;;
69594;SDS011;56800;52.142;5.364;2022-12-29T09:18:57;13.00;;;2.03;;
69594;SDS011;56800;52.142;5.364;2022-12-29T09:21:26;12.63;;;1.87;;
69594;SDS011;56800;52.142;5.364;2022-12-29T09:23:52;13.00;;;1.70;;
69594;SDS011;56800;52.142;5.364;2022-12-29T09:26:19;11.43;;;2.00;;
69594;SDS011;56800;52.142;5.364;2022-12-29T09:28:46;13.45;;;2.10;;
69594;SDS011;56800;52.142;5.364;2022-12-29T09:31:13;12.52;;;2.15;;
69594;SDS011;56800;52.142;5.364;2022-12-29T09:33:40;14.00;;;2.07;;
69594;SDS011;56800;52.142;5.364;2022-12-29T09:36:08;11.85;;;2.05;;
69594;SDS011;56800;52.142;5.364;2022-12-29T09:38:35;11.48;;;1.88;;
69594;SDS011;56800;52.142;5.364;2022-12-29T09:41:17;8.63;;;1.73;;
69594;SDS011;56800;52.142;5.364;2022-12-29T09:44:13;8.43;;;1.85;;
69594;SDS011;56800;52.142;5.364;2022-12-29T09:46:54;12.27;;;1.80;;
69594;SDS011;56800;52.142;5.364;2022-12-29T09:52:09;9.70;;;2.05;;
69594;SDS011;56800;52.142;5.364;2022-12-29T09:54:46;10.13;;;1.95;;
69594;SDS011;56800;52.142;5.364;2022-12-29T10:00:24;9.00;;;1.30;;
69594;SDS011;56800;52.142;5.364;2022-12-29T10:03:13;11.27;;;2.10;;
69594;SDS011;56800;52.142;5.364;2022-12-29T10:05:49;10.25;;;1.98;;
69594;SDS011;56800;52.142;5.364;2022-12-29T10:08:47;11.10;;;2.13;;
69594;SDS011;56800;52.142;5.364;2022-12-29T10:12:16;10.02;;;1.55;;
69594;SDS011;56800;52.142;5.364;2022-12-29T10:22:35;8.25;;;1.85;;
69594;SDS011;56800;52.142;5.364;2022-12-29T10:25:25;10.40;;;1.75;;
69594;SDS011;56800;52.142;5.364;2022-12-29T10:27:59;8.00;;;1.53;;
69594;SDS011;56800;52.142;5.364;2022-12-29T10:30:31;10.35;;;1.58;;
69594;SDS011;56800;52.142;5.364;2022-12-29T10:33:04;8.35;;;1.90;;
69594;SDS011;56800;52.142;5.364;2022-12-29T10:35:36;11.43;;;1.75;;
69594;SDS011;56800;52.142;5.364;2022-12-29T10:38:18;9.10;;;1.73;;
69594;SDS011;56800;52.142;5.364;2022-12-29T10:41:32;12.17;;;1.63;;
69594;SDS011;56800;52.142;5.364;2022-12-29T10:44:21;9.18;;;1.65;;
69594;SDS011;56800;52.142;5.364;2022-12-29T10:46:53;11.73;;;2.28;;
69594;SDS011;56800;52.142;5.364;2022-12-29T10:49:24;15.18;;;1.88;;
69594;SDS011;56800;52.142;5.364;2022-12-29T10:51:52;20.65;;;2.38;;
69594;SDS011;56800;52.142;5.364;2022-12-29T10:56:50;21.90;;;2.58;;
69594;SDS011;56800;52.142;5.364;2022-12-29T10:59:22;16.02;;;2.92;;
69594;SDS011;56800;52.142;5.364;2022-12-29T11:02:00;16.55;;;2.85;;
69594;SDS011;56800;52.142;5.364;2022-12-29T11:07:36;17.17;;;3.13;;
69594;SDS011;56800;52.142;5.364;2022-12-29T11:13:18;18.15;;;3.15;;
69594;SDS011;56800;52.142;5.364;2022-12-29T11:15:52;13.32;;;2.40;;
69594;SDS011;56800;52.142;5.364;2022-12-29T11:18:32;20.17;;;3.72;;
69594;SDS011;56800;52.142;5.364;2022-12-29T11:21:04;23.37;;;2.77;;
69594;SDS011;56800;52.142;5.364;2022-12-29T11:27:08;16.08;;;2.50;;
69594;SDS011;56800;52.142;5.364;2022-12-29T11:29:43;14.82;;;2.50;;
69594;SDS011;56800;52.142;5.364;2022-12-29T11:34:53;22.63;;;3.00;;
69594;SDS011;56800;52.142;5.364;2022-12-29T11:39:56;14.38;;;3.17;;
69594;SDS011;56800;52.142;5.364;2022-12-29T11:42:32;23.80;;;3.30;;
69594;SDS011;56800;52.142;5.364;2022-12-29T11:45:06;13.30;;;2.63;;
69594;SDS011;56800;52.142;5.364;2022-12-29T11:48:07;19.07;;;2.60;;
69594;SDS011;56800;52.142;5.364;2022-12-29T11:50:37;19.35;;;3.35;;
69594;SDS011;56800;52.142;5.364;2022-12-29T11:55:51;20.65;;;3.50;;
69594;SDS011;56800;52.142;5.364;2022-12-29T11:58:28;19.90;;;3.28;;
69594;SDS011;56800;52.142;5.364;2022-12-29T12:01:11;17.70;;;2.70;;
69594;SDS011;56800;52.142;5.364;2022-12-29T12:06:30;19.95;;;3.15;;
69594;SDS011;56800;52.142;5.364;2022-12-29T12:09:02;24.13;;;3.28;;
69594;SDS011;56800;52.142;5.364;2022-12-29T12:11:32;20.48;;;3.10;;
69594;SDS011;56800;52.142;5.364;2022-12-29T12:14:10;18.57;;;3.23;;
69594;SDS011;56800;52.142;5.364;2022-12-29T12:17:22;16.08;;;2.95;;
69594;SDS011;56800;52.142;5.364;2022-12-29T12:19:55;15.10;;;2.47;;
69594;SDS011;56800;52.142;5.364;2022-12-29T12:22:40;21.00;;;3.70;;
69594;SDS011;56800;52.142;5.364;2022-12-29T12:25:31;24.80;;;3.50;;
69594;SDS011;56800;52.142;5.364;2022-12-29T12:30:38;16.95;;;2.42;;
69594;SDS011;56800;52.142;5.364;2022-12-29T12:33:13;22.02;;;2.85;;
69594;SDS011;56800;52.142;5.364;2022-12-29T12:42:06;25.50;;;3.57;;
69594;SDS011;56800;52.142;5.364;2022-12-29T12:44:29;24.45;;;4.00;;
69594;SDS011;56800;52.142;5.364;2022-12-29T12:50:18;20.23;;;3.13;;
69594;SDS011;56800;52.142;5.364;2022-12-29T13:01:42;20.20;;;2.88;;
69594;SDS011;56800;52.142;5.364;2022-12-29T13:07:10;23.52;;;3.15;;
69594;SDS011;56800;52.142;5.364;2022-12-29T13:21:08;17.23;;;2.60;;
69594;SDS011;56800;52.142;5.364;2022-12-29T13:23:53;16.27;;;2.63;;
69594;SDS011;56800;52.142;5.364;2022-12-29T13:26:34;17.17;;;3.63;;
69594;SDS011;56800;52.142;5.364;2022-12-29T13:29:23;15.52;;;2.83;;
69594;SDS011;56800;52.142;5.364;2022-12-29T13:37:21;16.60;;;2.43;;
69594;SDS011;56800;52.142;5.364;2022-12-29T13:39:54;18.85;;;2.80;;
69594;SDS011;56800;52.142;5.364;2022-12-29T13:42:23;13.30;;;3.17;;
69594;SDS011;56800;52.142;5.364;2022-12-29T13:44:59;21.08;;;3.55;;
69594;SDS011;56800;52.142;5.364;2022-12-29T13:47:34;17.27;;;2.70;;
69594;SDS011;56800;52.142;5.364;2022-12-29T13:50:08;15.07;;;2.50;;
69594;SDS011;56800;52.142;5.364;2022-12-29T13:52:43;17.65;;;2.85;;
69594;SDS011;56800;52.142;5.364;2022-12-29T14:03:50;15.63;;;2.93;;
69594;SDS011;56800;52.142;5.364;2022-12-29T14:06:26;21.38;;;3.10;;
69594;SDS011;56800;52.142;5.364;2022-12-29T14:08:59;18.42;;;2.85;;
69594;SDS011;56800;52.142;5.364;2022-12-29T14:11:32;14.88;;;2.30;;
69594;SDS011;56800;52.142;5.364;2022-12-29T14:16:48;20.23;;;3.13;;
69594;SDS011;56800;52.142;5.364;2022-12-29T14:19:16;9.23;;;2.40;;
69594;SDS011;56800;52.142;5.364;2022-12-29T14:21:51;6.22;;;1.63;;
69594;SDS011;56800;52.142;5.364;2022-12-29T14:24:42;8.43;;;1.65;;
69594;SDS011;56800;52.142;5.364;2022-12-29T14:32:38;7.45;;;2.22;;
69594;SDS011;56800;52.142;5.364;2022-12-29T14:34:58;9.02;;;2.08;;
69594;SDS011;56800;52.142;5.364;2022-12-29T14:37:28;7.10;;;1.23;;
69594;SDS011;56800;52.142;5.364;2022-12-29T14:40:16;8.77;;;1.60;;
69594;SDS011;56800;52.142;5.364;2022-12-29T14:42:53;9.17;;;1.67;;
69594;SDS011;56800;52.142;5.364;2022-12-29T14:45:28;5.60;;;1.30;;
69594;SDS011;56800;52.142;5.364;2022-12-29T14:47:56;6.95;;;1.58;;
69594;SDS011;56800;52.142;5.364;2022-12-29T14:50:25;6.28;;;1.20;;
69594;SDS011;56800;52.142;5.364;2022-12-29T14:53:03;9.00;;;1.40;;
69594;SDS011;56800;52.142;5.364;2022-12-29T14:55:45;8.30;;;1.43;;
69594;SDS011;56800;52.142;5.364;2022-12-29T14:58:14;7.38;;;1.60;;
69594;SDS011;56800;52.142;5.364;2022-12-29T15:00:56;8.88;;;1.85;;
69594;SDS011;56800;52.142;5.364;2022-12-29T15:08:36;9.27;;;1.77;;
69594;SDS011;56800;52.142;5.364;2022-12-29T15:11:11;6.97;;;1.55;;
69594;SDS011;56800;52.142;5.364;2022-12-29T15:13:44;8.23;;;1.90;;
69594;SDS011;56800;52.142;5.364;2022-12-29T15:16:20;10.60;;;1.70;;
69594;SDS011;56800;52.142;5.364;2022-12-29T15:18:59;12.80;;;1.88;;
69594;SDS011;56800;52.142;5.364;2022-12-29T15:21:27;11.67;;;1.73;;
69594;SDS011;56800;52.142;5.364;2022-12-29T15:23:57;7.40;;;1.52;;
69594;SDS011;56800;52.142;5.364;2022-12-29T15:26:35;10.07;;;2.47;;
69594;SDS011;56800;52.142;5.364;2022-12-29T15:31:59;6.45;;;1.83;;
69594;SDS011;56800;52.142;5.364;2022-12-29T15:34:35;11.83;;;2.90;;
69594;SDS011;56800;52.142;5.364;2022-12-29T15:37:06;12.32;;;1.83;;
69594;SDS011;56800;52.142;5.364;2022-12-29T15:39:34;11.10;;;2.22;;
69594;SDS011;56800;52.142;5.364;2022-12-29T15:42:02;13.55;;;1.77;;
69594;SDS011;56800;52.142;5.364;2022-12-29T15:44:42;12.40;;;1.67;;
69594;SDS011;56800;52.142;5.364;2022-12-29T15:47:15;11.80;;;2.13;;
69594;SDS011;56800;52.142;5.364;2022-12-29T15:49:48;10.25;;;1.80;;
69594;SDS011;56800;52.142;5.364;2022-12-29T15:52:20;10.88;;;2.10;;
69594;SDS011;56800;52.142;5.364;2022-12-29T15:54:48;13.20;;;2.03;;
69594;SDS011;56800;52.142;5.364;2022-12-29T15:57:22;11.15;;;1.67;;
69594;SDS011;56800;52.142;5.364;2022-12-29T15:59:50;10.97;;;1.80;;
69594;SDS011;56800;52.142;5.364;2022-12-29T16:02:17;14.48;;;2.08;;
69594;SDS011;56800;52.142;5.364;2022-12-29T16:04:45;12.20;;;1.88;;
69594;SDS011;56800;52.142;5.364;2022-12-29T16:07:33;8.82;;;1.88;;
69594;SDS011;56800;52.142;5.364;2022-12-29T16:10:21;8.77;;;1.75;;
69594;SDS011;56800;52.142;5.364;2022-12-29T16:12:51;12.17;;;1.90;;
69594;SDS011;56800;52.142;5.364;2022-12-29T16:15:18;12.18;;;2.00;;
69594;SDS011;56800;52.142;5.364;2022-12-29T16:17:49;13.02;;;1.88;;
69594;SDS011;56800;52.142;5.364;2022-12-29T16:20:19;10.77;;;1.92;;
69594;SDS011;56800;52.142;5.364;2022-12-29T16:22:49;10.52;;;1.80;;
69594;SDS011;56800;52.142;5.364;2022-12-29T16:25:20;10.50;;;1.97;;
69594;SDS011;56800;52.142;5.364;2022-12-29T16:27:50;13.23;;;2.33;;
69594;SDS011;56800;52.142;5.364;2022-12-29T16:30:25;12.55;;;2.08;;
69594;SDS011;56800;52.142;5.364;2022-12-29T16:33:00;9.50;;;1.75;;
69594;SDS011;56800;52.142;5.364;2022-12-29T16:38:20;9.17;;;1.70;;
69594;SDS011;56800;52.142;5.364;2022-12-29T16:40:52;9.60;;;1.90;;
69594;SDS011;56800;52.142;5.364;2022-12-29T16:43:26;7.93;;;1.70;;
69594;SDS011;56800;52.142;5.364;2022-12-29T16:48:36;7.05;;;1.48;;
69594;SDS011;56800;52.142;5.364;2022-12-29T16:51:14;9.63;;;1.90;;
69594;SDS011;56800;52.142;5.364;2022-12-29T16:53:52;5.47;;;1.13;;
69594;SDS011;56800;52.142;5.364;2022-12-29T16:56:21;7.00;;;1.48;;
69594;SDS011;56800;52.142;5.364;2022-12-29T16:59:02;8.20;;;1.35;;
69594;SDS011;56800;52.142;5.364;2022-12-29T17:01:34;8.98;;;1.50;;
69594;SDS011;56800;52.142;5.364;2022-12-29T17:04:06;8.57;;;1.60;;
69594;SDS011;56800;52.142;5.364;2022-12-29T17:06:38;6.97;;;1.40;;
69594;SDS011;56800;52.142;5.364;2022-12-29T17:09:18;11.18;;;1.60;;
69594;SDS011;56800;52.142;5.364;2022-12-29T17:11:50;9.63;;;1.60;;
69594;SDS011;56800;52.142;5.364;2022-12-29T17:17:12;8.30;;;1.40;;
69594;SDS011;56800;52.142;5.364;2022-12-29T17:19:42;9.77;;;1.73;;
69594;SDS011;56800;52.142;5.364;2022-12-29T17:22:13;9.38;;;1.67;;
69594;SDS011;56800;52.142;5.364;2022-12-29T17:24:42;12.57;;;1.83;;
69594;SDS011;56800;52.142;5.364;2022-12-29T17:27:12;10.57;;;2.10;;
69594;SDS011;56800;52.142;5.364;2022-12-29T17:29:47;9.80;;;1.63;;
69594;SDS011;56800;52.142;5.364;2022-12-29T17:32:14;12.43;;;1.83;;
69594;SDS011;56800;52.142;5.364;2022-12-29T17:34:41;15.77;;;2.10;;
69594;SDS011;56800;52.142;5.364;2022-12-29T17:37:30;12.63;;;1.60;;
69594;SDS011;56800;52.142;5.364;2022-12-29T17:39:56;10.30;;;1.65;;
69594;SDS011;56800;52.142;5.364;2022-12-29T17:42:23;7.93;;;1.70;;
69594;SDS011;56800;52.142;5.364;2022-12-29T17:44:50;16.15;;;2.13;;
69594;SDS011;56800;52.142;5.364;2022-12-29T17:47:17;10.25;;;1.70;;
69594;SDS011;56800;52.142;5.364;2022-12-29T17:49:44;13.98;;;1.92;;